Time;durP1;ratioP1;P1;durP2;ratioP2;P2;SDS_P1;SDS_P2;PMS_P1;PMS_P2;Temp;Humidity;BMP_temperature;BMP_pressure;BME280_temperature;BME280_humidity;BME280_pressure;Samples;Min_cycle;Max_cycle;Signal;HPM_P1;HPM_P2
2023/09/02 00:00:44;;;;;;;24.05;17.42;;;15.60;99.90;;;;;;5049958;28;20033;-63
2023/09/02 00:03:10;;;;;;;26.38;19.10;;;15.60;99.90;;;;;;5050188;28;20051;-64
2023/09/02 00:05:35;;;;;;;25.60;18.45;;;15.60;99.90;;;;;;5049553;28;20045;-62
2023/09/02 00:08:01;;;;;;;26.77;19.77;;;15.60;99.90;;;;;;5049585;28;20411;-63
2023/09/02 00:10:26;;;;;;;27.48;19.67;;;15.60;99.90;;;;;;5049995;28;20037;-63
2023/09/02 00:12:52;;;;;;;26.23;21.10;;;15.60;99.90;;;;;;5042673;28;20048;-64
2023/09/02 00:15:18;;;;;;;27.67;20.98;;;15.60;99.90;;;;;;5049919;28;20560;-64
2023/09/02 00:17:43;;;;;;;27.95;20.88;;;15.60;99.90;;;;;;5048972;28;20041;-62
2023/09/02 00:20:09;;;;;;;29.30;23.27;;;15.60;99.90;;;;;;5048359;28;20048;-62
2023/09/02 00:22:35;;;;;;;28.55;22.02;;;15.60;99.90;;;;;;5048267;28;20041;-62
2023/09/02 00:25:01;;;;;;;30.58;22.77;;;15.60;99.90;;;;;;5049981;28;20114;-63
2023/09/02 00:27:26;;;;;;;31.48;23.60;;;15.60;99.90;;;;;;5049358;28;20356;-62
2023/09/02 00:29:52;;;;;;;29.58;23.60;;;15.60;99.90;;;;;;5048322;28;20183;-62
2023/09/02 00:32:19;;;;;;;29.92;22.27;;;15.60;99.90;;;;;;5049918;28;20475;-62
2023/09/02 00:34:46;;;;;;;29.30;22.13;;;15.60;99.90;;;;;;5048514;28;20036;-62
2023/09/02 00:37:12;;;;;;;30.08;22.85;;;15.60;99.90;;;;;;5049251;28;20048;-63
2023/09/02 00:39:37;;;;;;;26.73;21.90;;;15.60;99.90;;;;;;5048345;28;20036;-63
2023/09/02 00:42:04;;;;;;;30.52;22.10;;;15.60;99.90;;;;;;5049359;28;20044;-62
2023/09/02 00:44:30;;;;;;;28.45;22.58;;;15.60;99.90;;;;;;5048120;28;20051;-64
2023/09/02 00:46:59;;;;;;;27.80;20.42;;;15.60;99.90;;;;;;5038934;28;20040;-64
2023/09/02 00:49:25;;;;;;;29.63;20.95;;;15.60;99.90;;;;;;5048468;28;20033;-62
2023/09/02 00:51:50;;;;;;;29.17;21.75;;;15.70;99.90;;;;;;5048384;28;20070;-62
2023/09/02 00:54:16;;;;;;;27.70;21.52;;;15.60;99.90;;;;;;5050054;28;20056;-62
2023/09/02 00:56:42;;;;;;;30.65;22.50;;;15.60;99.90;;;;;;5053137;28;20433;-65
2023/09/02 00:59:07;;;;;;;26.20;21.35;;;15.60;99.90;;;;;;5052959;28;20036;-64
2023/09/02 01:01:35;;;;;;;24.90;21.67;;;15.60;99.90;;;;;;5049847;28;20064;-63
2023/09/02 01:04:03;;;;;;;32.53;21.73;;;15.60;99.90;;;;;;5045546;28;20045;-63
2023/09/02 01:06:29;;;;;;;32.00;21.95;;;15.60;99.90;;;;;;5053252;28;20072;-62
2023/09/02 01:08:54;;;;;;;28.33;20.75;;;15.60;99.90;;;;;;5047460;28;20126;-62
2023/09/02 01:11:20;;;;;;;26.67;20.88;;;15.60;99.90;;;;;;5051418;28;20033;-62
2023/09/02 01:13:46;;;;;;;24.90;20.83;;;15.60;99.90;;;;;;5052056;28;20123;-64
2023/09/02 01:16:11;;;;;;;30.65;22.13;;;15.50;99.90;;;;;;5047451;28;20392;-62
2023/09/02 01:18:37;;;;;;;28.25;21.65;;;15.60;99.90;;;;;;5052578;28;20037;-62
2023/09/02 01:21:11;;;;;;;30.20;22.50;;;15.70;99.90;;;;;;5046235;28;20037;-62
2023/09/02 01:24:00;;;;;;;29.15;21.13;;;15.70;99.90;;;;;;5052673;28;20031;-63
2023/09/02 01:26:32;;;;;;;32.45;22.95;;;15.70;99.90;;;;;;5051617;28;20037;-62
2023/09/02 01:29:04;;;;;;;30.10;21.85;;;15.60;99.90;;;;;;5044979;28;20038;-62
2023/09/02 01:31:32;;;;;;;32.83;21.00;;;15.60;99.90;;;;;;5052952;28;20048;-63
2023/09/02 01:33:59;;;;;;;26.83;20.95;;;15.70;99.90;;;;;;5051939;28;20048;-63
2023/09/02 01:36:27;;;;;;;30.55;22.67;;;15.70;99.90;;;;;;5052734;28;20037;-63
2023/09/02 01:38:53;;;;;;;29.92;22.55;;;15.70;99.90;;;;;;5050366;28;20044;-64
2023/09/02 01:41:21;;;;;;;29.17;21.95;;;15.70;99.90;;;;;;5051201;28;20124;-63
2023/09/02 01:43:48;;;;;;;31.63;21.52;;;15.70;99.90;;;;;;5052182;28;20048;-64
2023/09/02 01:46:14;;;;;;;28.42;21.45;;;15.60;99.90;;;;;;5052487;28;20068;-62
2023/09/02 01:48:40;;;;;;;29.85;22.05;;;15.70;99.90;;;;;;5051490;28;20115;-63
2023/09/02 01:51:06;;;;;;;28.90;21.65;;;15.70;99.90;;;;;;5052014;28;20468;-63
2023/09/02 01:53:32;;;;;;;27.95;20.88;;;15.70;99.90;;;;;;5051788;28;20127;-62
2023/09/02 01:55:59;;;;;;;27.13;20.77;;;15.60;99.90;;;;;;5044219;28;20047;-63
2023/09/02 01:58:24;;;;;;;26.92;21.25;;;15.70;99.90;;;;;;5041704;28;20037;-63
2023/09/02 02:00:50;;;;;;;27.25;20.50;;;15.70;99.90;;;;;;5051276;28;20377;-63
2023/09/02 02:03:34;;;;;;;27.70;21.08;;;15.70;99.90;;;;;;5052145;28;20032;-63
2023/09/02 02:06:01;;;;;;;32.78;22.38;;;15.60;99.90;;;;;;5044157;28;20040;-65
2023/09/02 02:08:44;;;;;;;30.80;22.05;;;15.70;99.90;;;;;;5051593;28;20037;-63
2023/09/02 02:11:10;;;;;;;28.30;21.15;;;15.70;99.90;;;;;;5051789;28;20126;-63
2023/09/02 02:13:38;;;;;;;31.10;22.52;;;15.60;99.90;;;;;;5050340;28;20048;-63
2023/09/02 02:16:04;;;;;;;29.95;20.88;;;15.70;99.90;;;;;;5051628;28;20324;-63
2023/09/02 02:18:29;;;;;;;27.52;21.42;;;15.70;99.90;;;;;;5051411;28;20698;-63
2023/09/02 02:21:05;;;;;;;28.38;21.98;;;15.70;99.90;;;;;;5050217;28;20443;-63
2023/09/02 02:23:31;;;;;;;27.55;21.40;;;15.70;99.90;;;;;;5051750;28;20041;-65
2023/09/02 02:26:04;;;;;;;30.13;21.83;;;15.70;99.90;;;;;;5047802;28;20479;-63
2023/09/02 02:28:30;;;;;;;29.50;22.30;;;15.60;99.90;;;;;;5051726;28;20051;-63
2023/09/02 02:30:58;;;;;;;30.52;22.13;;;15.60;99.90;;;;;;5050745;28;20037;-64
2023/09/02 02:33:25;;;;;;;31.52;21.80;;;15.60;99.90;;;;;;5047301;28;20033;-63
2023/09/02 02:35:50;;;;;;;26.73;21.52;;;15.70;99.90;;;;;;5051713;28;20040;-64
2023/09/02 02:38:16;;;;;;;28.73;22.40;;;15.70;99.90;;;;;;5047103;28;20449;-64
2023/09/02 02:40:42;;;;;;;31.00;23.15;;;15.70;99.90;;;;;;5063207;22;20044;-63
2023/09/02 02:43:08;;;;;;;31.83;23.05;;;15.70;99.90;;;;;;5032179;28;20045;-64
2023/09/02 02:45:34;;;;;;;29.23;22.45;;;15.70;99.90;;;;;;5031401;28;20128;-63
2023/09/02 02:48:00;;;;;;;34.55;22.85;;;15.70;99.90;;;;;;5029307;28;20485;-64
2023/09/02 02:50:25;;;;;;;29.98;22.65;;;15.70;99.90;;;;;;5031314;28;20048;-63
2023/09/02 02:52:51;;;;;;;28.80;22.50;;;15.70;99.90;;;;;;5031208;28;20075;-64
2023/09/02 02:55:17;;;;;;;33.83;23.02;;;15.70;99.90;;;;;;5026890;28;20033;-63
2023/09/02 02:57:47;;;;;;;29.38;23.20;;;15.70;99.90;;;;;;5029488;28;20041;-63
2023/09/02 03:00:13;;;;;;;32.45;23.40;;;15.60;99.90;;;;;;5027487;28;20376;-63
2023/09/02 03:02:38;;;;;;;33.75;22.95;;;15.60;99.90;;;;;;5030993;28;20053;-63
2023/09/02 03:05:04;;;;;;;33.17;23.65;;;15.60;99.90;;;;;;5026855;28;20422;-63
2023/09/02 03:07:30;;;;;;;33.30;22.73;;;15.60;99.90;;;;;;5024608;28;20034;-63
2023/09/02 03:09:55;;;;;;;31.70;22.48;;;15.70;99.90;;;;;;5024537;28;20044;-64
2023/09/02 03:12:21;;;;;;;29.60;23.13;;;15.70;99.90;;;;;;5030346;28;20520;-63
2023/09/02 03:14:47;;;;;;;31.33;23.02;;;15.60;99.90;;;;;;5030960;28;20049;-63
2023/09/02 03:17:13;;;;;;;33.53;22.52;;;15.60;99.90;;;;;;5029728;28;20041;-63
2023/09/02 03:19:44;;;;;;;32.10;22.60;;;15.60;99.90;;;;;;5030807;28;20144;-63
2023/09/02 03:22:10;;;;;;;33.05;22.25;;;15.60;99.90;;;;;;5030311;28;20046;-64
2023/09/02 03:24:36;;;;;;;30.48;22.73;;;15.70;99.90;;;;;;5030613;28;20071;-64
2023/09/02 03:27:03;;;;;;;31.38;22.95;;;15.70;99.90;;;;;;5027418;28;20045;-64
2023/09/02 03:29:29;;;;;;;32.08;22.70;;;15.60;99.90;;;;;;5028118;28;20118;-63
2023/09/02 03:31:55;;;;;;;30.30;22.90;;;15.60;99.90;;;;;;5030673;28;20037;-63
2023/09/02 03:34:20;;;;;;;32.83;23.42;;;15.60;99.90;;;;;;5030861;28;20033;-64
2023/09/02 03:36:46;;;;;;;32.45;22.63;;;15.60;99.90;;;;;;5030507;28;20555;-65
2023/09/02 03:39:11;;;;;;;33.13;22.98;;;15.60;99.90;;;;;;5029874;28;20531;-64
2023/09/02 03:41:37;;;;;;;33.50;23.52;;;15.60;99.90;;;;;;5030113;28;20041;-63
2023/09/02 03:44:03;;;;;;;31.02;23.48;;;15.60;99.90;;;;;;5030545;28;20117;-63
2023/09/02 03:46:29;;;;;;;31.77;23.58;;;15.70;99.90;;;;;;5030483;28;20450;-64
2023/09/02 03:48:55;;;;;;;32.53;24.00;;;15.70;99.90;;;;;;5030446;28;20044;-64
2023/09/02 03:51:21;;;;;;;32.60;24.65;;;15.60;99.90;;;;;;5030137;28;20087;-64
2023/09/02 03:53:46;;;;;;;36.35;25.08;;;15.60;99.90;;;;;;5029009;28;20125;-64
2023/09/02 03:56:12;;;;;;;33.40;23.88;;;15.60;99.90;;;;;;5030310;28;20068;-65
2023/09/02 03:58:38;;;;;;;31.08;24.23;;;15.60;99.90;;;;;;5026236;28;20519;-63
2023/09/02 04:01:03;;;;;;;35.00;24.10;;;15.60;99.90;;;;;;5030169;28;20033;-63
2023/09/02 04:03:31;;;;;;;37.92;24.88;;;15.60;99.90;;;;;;5029942;28;20171;-63
2023/09/02 04:05:57;;;;;;;32.22;24.67;;;15.60;99.90;;;;;;5030320;28;20041;-64
2023/09/02 04:08:26;;;;;;;36.80;24.95;;;15.70;99.90;;;;;;5029739;28;20041;-63
2023/09/02 04:10:57;;;;;;;33.40;24.73;;;15.70;99.90;;;;;;5028585;28;20415;-63
2023/09/02 04:13:25;;;;;;;33.53;24.52;;;15.60;99.90;;;;;;5030405;28;20422;-64
2023/09/02 04:15:56;;;;;;;32.65;23.17;;;15.70;99.90;;;;;;5020026;28;20080;-63
2023/09/02 04:18:22;;;;;;;34.03;24.00;;;15.70;99.90;;;;;;5028745;28;20191;-63
2023/09/02 04:20:48;;;;;;;32.30;23.60;;;15.60;99.90;;;;;;5022004;28;20038;-64
2023/09/02 04:23:14;;;;;;;34.10;23.90;;;15.70;99.90;;;;;;5029942;28;20052;-65
2023/09/02 04:25:47;;;;;;;33.72;24.58;;;15.70;99.90;;;;;;5028064;28;20041;-64
2023/09/02 04:28:13;;;;;;;33.70;24.80;;;15.70;99.90;;;;;;5030642;28;20040;-64
2023/09/02 04:30:39;;;;;;;31.02;23.70;;;15.70;99.90;;;;;;5033770;28;20158;-63
2023/09/02 04:33:05;;;;;;;33.05;24.13;;;15.60;99.90;;;;;;5034088;28;20053;-63
2023/09/02 04:35:38;;;;;;;32.67;24.40;;;15.70;99.90;;;;;;5010314;28;20049;-63
2023/09/02 04:38:04;;;;;;;34.13;24.02;;;15.70;99.90;;;;;;5033828;28;20087;-66
2023/09/02 04:40:31;;;;;;;33.95;24.40;;;15.70;99.90;;;;;;5033961;28;20030;-66
2023/09/02 04:42:56;;;;;;;31.02;23.63;;;15.70;99.90;;;;;;5032880;28;20048;-64
2023/09/02 04:45:22;;;;;;;35.05;24.73;;;15.60;99.90;;;;;;5032650;28;20029;-65
2023/09/02 04:47:48;;;;;;;33.33;23.15;;;15.60;99.90;;;;;;5032966;28;20034;-63
2023/09/02 04:50:14;;;;;;;36.97;24.25;;;15.70;99.90;;;;;;5033475;28;20142;-66
2023/09/02 04:52:39;;;;;;;33.75;25.27;;;15.60;99.90;;;;;;5033145;28;20046;-63
2023/09/02 04:55:05;;;;;;;32.60;24.40;;;15.60;99.90;;;;;;5033376;28;20037;-63
2023/09/02 04:57:34;;;;;;;35.90;25.80;;;15.60;99.90;;;;;;5033414;28;20061;-64
2023/09/02 04:59:59;;;;;;;35.53;24.42;;;15.70;99.90;;;;;;5031888;28;20438;-63
2023/09/02 05:02:25;;;;;;;34.65;24.17;;;15.70;99.90;;;;;;5033346;28;20038;-63
2023/09/02 05:04:52;;;;;;;36.13;24.65;;;15.70;99.90;;;;;;5033106;28;20614;-65
2023/09/02 05:07:17;;;;;;;35.97;24.80;;;15.70;99.90;;;;;;5031198;28;20376;-63
2023/09/02 05:09:43;;;;;;;35.97;24.77;;;15.60;99.90;;;;;;5033334;28;20041;-64
2023/09/02 05:12:08;;;;;;;37.25;25.80;;;15.60;99.90;;;;;;5030491;28;20037;-63
2023/09/02 05:14:34;;;;;;;37.53;25.98;;;15.70;99.90;;;;;;5025665;28;20044;-63
2023/09/02 05:17:00;;;;;;;38.92;25.23;;;15.70;99.90;;;;;;5032786;28;20116;-64
2023/09/02 05:19:25;;;;;;;41.55;25.65;;;15.70;99.90;;;;;;5031534;28;20087;-65
2023/09/02 05:21:52;;;;;;;38.65;25.95;;;15.70;99.90;;;;;;5033075;28;20395;-65
2023/09/02 05:24:17;;;;;;;34.97;25.25;;;15.70;99.90;;;;;;5032947;28;20069;-65
2023/09/02 05:26:43;;;;;;;41.58;26.17;;;15.70;99.90;;;;;;5032840;28;20471;-63
2023/09/02 05:29:08;;;;;;;45.50;27.00;;;15.70;99.90;;;;;;5032282;28;20041;-64
2023/09/02 05:31:34;;;;;;;40.70;26.30;;;15.70;99.90;;;;;;5032924;28;20048;-64
2023/09/02 05:34:00;;;;;;;37.58;26.05;;;15.60;99.90;;;;;;5032343;28;20048;-64
2023/09/02 05:36:25;;;;;;;40.85;27.13;;;15.70;99.90;;;;;;5028650;28;20037;-64
2023/09/02 05:38:51;;;;;;;34.58;25.27;;;15.60;99.90;;;;;;5031978;28;20060;-64
2023/09/02 05:41:17;;;;;;;41.05;26.95;;;15.70;99.90;;;;;;5032246;28;20340;-64
2023/09/02 05:43:42;;;;;;;40.53;26.08;;;15.70;99.90;;;;;;5032744;28;20045;-64
2023/09/02 05:46:08;;;;;;;38.45;25.42;;;15.70;99.90;;;;;;5032234;28;20037;-65
2023/09/02 05:48:34;;;;;;;37.15;26.67;;;15.70;99.90;;;;;;5032091;28;20041;-64
2023/09/02 05:50:59;;;;;;;37.92;25.35;;;15.70;99.90;;;;;;5032520;28;20108;-64
2023/09/02 05:53:25;;;;;;;36.58;26.60;;;15.70;99.90;;;;;;5027939;28;20496;-64
2023/09/02 05:55:56;;;;;;;36.78;26.65;;;15.70;99.90;;;;;;5032116;28;20037;-64
2023/09/02 05:58:24;;;;;;;36.53;25.63;;;15.70;99.90;;;;;;5031928;28;20045;-65
2023/09/02 06:00:49;;;;;;;37.80;26.00;;;15.70;99.90;;;;;;5026406;28;20037;-64
2023/09/02 06:03:15;;;;;;;35.88;25.80;;;15.70;99.90;;;;;;5031787;28;20044;-65
2023/09/02 06:05:41;;;;;;;36.25;26.52;;;15.70;99.90;;;;;;5028485;28;20034;-65
2023/09/02 06:08:06;;;;;;;36.15;26.27;;;15.70;99.90;;;;;;5032088;28;20088;-66
2023/09/02 06:10:32;;;;;;;33.03;24.98;;;15.70;99.90;;;;;;5029383;28;20041;-65
2023/09/02 06:12:57;;;;;;;37.05;26.02;;;15.80;99.90;;;;;;5032456;28;20045;-65
2023/09/02 06:15:23;;;;;;;37.70;25.42;;;15.80;99.90;;;;;;5032386;28;20045;-65
2023/09/02 06:17:48;;;;;;;35.85;26.33;;;15.80;99.90;;;;;;5031440;28;20033;-66
2023/09/02 06:20:16;;;;;;;37.90;24.90;;;15.80;99.90;;;;;;5032303;28;20045;-64
2023/09/02 06:22:42;;;;;;;36.55;25.63;;;15.80;99.90;;;;;;5030410;28;20480;-65
2023/09/02 06:25:08;;;;;;;33.30;24.90;;;15.80;99.90;;;;;;5032178;28;20063;-65
2023/09/02 06:27:34;;;;;;;35.42;25.33;;;15.90;99.90;;;;;;5031486;28;20037;-65
2023/09/02 06:29:59;;;;;;;33.08;24.95;;;15.90;99.90;;;;;;5030853;28;20038;-65
2023/09/02 06:32:25;;;;;;;35.97;26.30;;;15.90;99.90;;;;;;5030450;28;20124;-66
2023/09/02 06:34:53;;;;;;;36.05;25.90;;;15.90;99.90;;;;;;5030091;28;20040;-65
2023/09/02 06:37:19;;;;;;;37.00;26.50;;;15.90;99.90;;;;;;5031570;28;20041;-65
2023/09/02 06:39:44;;;;;;;36.00;25.50;;;16.00;99.90;;;;;;5028275;28;20041;-65
2023/09/02 06:42:10;;;;;;;33.83;24.17;;;16.00;99.90;;;;;;5031523;28;20040;-65
2023/09/02 06:44:36;;;;;;;35.25;24.70;;;16.00;99.90;;;;;;5027506;28;20045;-65
2023/09/02 06:47:03;;;;;;;37.58;26.58;;;16.00;99.90;;;;;;5031074;28;20040;-66
2023/09/02 06:49:31;;;;;;;35.33;25.60;;;16.00;99.90;;;;;;5031334;28;20053;-66
2023/09/02 06:51:57;;;;;;;37.28;25.67;;;15.90;99.90;;;;;;5023040;28;20037;-65
2023/09/02 06:54:23;;;;;;;35.80;25.70;;;16.00;99.90;;;;;;5031508;28;20045;-65
2023/09/02 06:56:50;;;;;;;36.10;25.33;;;16.00;99.90;;;;;;5030836;28;20034;-65
2023/09/02 06:59:15;;;;;;;33.00;24.60;;;16.00;99.90;;;;;;5031321;28;20053;-65
2023/09/02 07:01:41;;;;;;;33.25;24.77;;;16.00;99.90;;;;;;5029437;28;20332;-65
2023/09/02 07:04:07;;;;;;;34.72;24.65;;;16.00;99.90;;;;;;5031379;28;20033;-65
2023/09/02 07:06:32;;;;;;;30.17;22.30;;;16.10;99.90;;;;;;5026249;28;20045;-65
2023/09/02 07:08:59;;;;;;;31.77;22.30;;;16.10;99.90;;;;;;5030360;28;20037;-67
2023/09/02 07:11:24;;;;;;;31.20;23.05;;;16.10;99.90;;;;;;5028518;28;20048;-65
2023/09/02 07:13:50;;;;;;;32.60;24.02;;;16.10;99.90;;;;;;5023325;28;20041;-66
2023/09/02 07:16:16;;;;;;;29.90;22.80;;;16.10;99.90;;;;;;5025341;28;20212;-65
2023/09/02 07:18:41;;;;;;;33.22;23.73;;;16.20;99.90;;;;;;5025903;28;20042;-65
2023/09/02 07:21:07;;;;;;;32.50;23.75;;;16.30;99.90;;;;;;5029315;28;20395;-65
2023/09/02 07:23:33;;;;;;;33.08;23.55;;;16.30;99.90;;;;;;5030723;28;20040;-65
2023/09/02 07:26:00;;;;;;;30.60;22.48;;;16.30;99.90;;;;;;5029030;28;20091;-65
2023/09/02 07:28:27;;;;;;;29.25;21.73;;;16.30;99.90;;;;;;5026449;28;20045;-65
2023/09/02 07:30:52;;;;;;;27.50;21.90;;;16.40;99.90;;;;;;5030492;28;20038;-65
2023/09/02 07:33:18;;;;;;;31.98;22.10;;;16.30;99.90;;;;;;5030839;28;20454;-65
2023/09/02 07:35:43;;;;;;;32.47;22.85;;;16.30;99.90;;;;;;5030317;28;20049;-66
2023/09/02 07:38:10;;;;;;;29.13;21.42;;;16.30;99.90;;;;;;5029273;28;20046;-66
2023/09/02 07:40:36;;;;;;;32.50;22.17;;;16.40;99.90;;;;;;5030060;28;20073;-65
2023/09/02 07:43:02;;;;;;;29.35;22.15;;;16.40;99.90;;;;;;5030248;28;20077;-65
2023/09/02 07:45:29;;;;;;;29.77;21.65;;;16.40;99.90;;;;;;5029121;28;20436;-65
2023/09/02 07:47:54;;;;;;;29.90;21.65;;;16.40;99.90;;;;;;5029467;28;20388;-65
2023/09/02 07:50:20;;;;;;;33.53;22.27;;;16.40;99.90;;;;;;5030128;28;20048;-65
2023/09/02 07:52:46;;;;;;;31.80;22.17;;;16.50;99.90;;;;;;5025695;28;20046;-65
2023/09/02 07:55:11;;;;;;;29.95;21.52;;;16.50;99.90;;;;;;5026053;28;20038;-66
2023/09/02 07:57:37;;;;;;;29.75;22.33;;;16.50;99.90;;;;;;5029526;28;20119;-65
2023/09/02 08:00:03;;;;;;;31.95;22.60;;;16.60;99.90;;;;;;5029925;28;20033;-66
2023/09/02 08:02:29;;;;;;;28.88;21.83;;;16.60;99.90;;;;;;5030060;28;20388;-65
2023/09/02 08:04:54;;;;;;;32.95;22.40;;;16.70;99.90;;;;;;5028638;28;20037;-65
2023/09/02 08:07:20;;;;;;;30.70;22.00;;;16.70;99.90;;;;;;5020628;28;20042;-66
2023/09/02 08:09:48;;;;;;;31.33;22.60;;;16.60;99.90;;;;;;5028680;28;20038;-65
2023/09/02 08:12:14;;;;;;;31.10;23.13;;;16.80;99.90;;;;;;5028519;28;20551;-67
2023/09/02 08:14:39;;;;;;;30.48;21.85;;;16.80;99.90;;;;;;5030282;28;20136;-65
2023/09/02 08:17:05;;;;;;;30.33;21.45;;;16.80;99.90;;;;;;5028610;28;20041;-64
2023/09/02 08:19:31;;;;;;;29.95;21.58;;;16.90;99.90;;;;;;5026546;28;20033;-65
2023/09/02 08:21:57;;;;;;;30.45;21.75;;;16.90;99.90;;;;;;5030085;28;20033;-65
2023/09/02 08:24:23;;;;;;;28.45;21.52;;;16.90;99.90;;;;;;5021702;28;20558;-66
2023/09/02 08:26:48;;;;;;;28.63;21.27;;;16.90;99.90;;;;;;5027657;28;20060;-68
2023/09/02 08:29:15;;;;;;;28.83;20.45;;;17.00;99.90;;;;;;5026494;28;20034;-64
2023/09/02 08:31:40;;;;;;;33.15;21.60;;;17.00;99.90;;;;;;5028129;28;20048;-66
2023/09/02 08:34:06;;;;;;;28.50;21.10;;;17.00;99.90;;;;;;5029650;28;20049;-64
2023/09/02 08:36:31;;;;;;;30.63;20.65;;;17.00;99.90;;;;;;5023484;28;20041;-64
2023/09/02 08:38:57;;;;;;;33.70;21.42;;;17.10;99.90;;;;;;5029641;28;20120;-65
2023/09/02 08:41:29;;;;;;;28.60;21.08;;;17.20;99.90;;;;;;5041024;22;20038;-62
2023/09/02 08:44:01;;;;;;;25.60;19.02;;;17.20;99.90;;;;;;5009859;28;20125;-63
2023/09/02 08:46:27;;;;;;;29.13;21.38;;;17.30;99.90;;;;;;5002779;28;20051;-63
2023/09/02 08:48:56;;;;;;;31.25;21.40;;;17.30;99.90;;;;;;5002105;28;20439;-61
2023/09/02 08:51:23;;;;;;;27.13;19.20;;;17.40;99.90;;;;;;5009848;28;20038;-62
2023/09/02 08:53:50;;;;;;;25.73;19.17;;;17.50;99.90;;;;;;5009810;28;20511;-61
2023/09/02 08:56:16;;;;;;;27.15;19.75;;;17.50;99.90;;;;;;5008740;28;20438;-63
2023/09/02 08:58:43;;;;;;;29.27;20.30;;;17.60;99.90;;;;;;5007921;28;20045;-63
2023/09/02 09:01:13;;;;;;;24.98;19.05;;;17.70;99.90;;;;;;5008817;28;20068;-63
2023/09/02 09:03:40;;;;;;;26.00;19.33;;;17.70;99.90;;;;;;5009667;28;20046;-63
2023/09/02 09:06:09;;;;;;;27.73;20.02;;;17.80;99.90;;;;;;5006788;28;20076;-63
2023/09/02 09:08:36;;;;;;;24.15;18.90;;;17.80;99.90;;;;;;5007992;28;20046;-63
2023/09/02 09:11:06;;;;;;;26.02;18.70;;;17.80;99.90;;;;;;5006216;28;20085;-63
2023/09/02 09:13:34;;;;;;;24.25;18.20;;;17.80;99.90;;;;;;5009958;28;20042;-62
2023/09/02 09:16:01;;;;;;;23.98;18.55;;;17.80;99.90;;;;;;5004828;28;20123;-63
2023/09/02 09:18:27;;;;;;;26.70;19.17;;;17.80;99.90;;;;;;5013228;28;20038;-63
2023/09/02 09:20:53;;;;;;;25.50;18.55;;;17.90;99.90;;;;;;5012165;28;20091;-63
2023/09/02 09:23:19;;;;;;;24.65;18.42;;;17.90;99.90;;;;;;5013363;28;20053;-63
2023/09/02 09:25:49;;;;;;;24.35;17.52;;;18.00;99.90;;;;;;5013163;28;20037;-63
2023/09/02 09:28:15;;;;;;;24.27;18.13;;;18.00;99.90;;;;;;5013519;28;20041;-63
2023/09/02 09:30:41;;;;;;;22.33;17.35;;;18.10;99.90;;;;;;5011069;28;20377;-63
2023/09/02 09:33:07;;;;;;;27.83;19.15;;;18.10;99.90;;;;;;5005170;28;20488;-63
2023/09/02 09:35:34;;;;;;;25.38;18.15;;;18.20;99.90;;;;;;5011484;28;20037;-63
2023/09/02 09:38:01;;;;;;;25.15;17.27;;;18.30;99.90;;;;;;5005652;28;20038;-63
2023/09/02 09:40:31;;;;;;;28.80;19.05;;;18.40;99.90;;;;;;5011630;28;20463;-62
2023/09/02 09:43:01;;;;;;;22.98;16.98;;;18.50;99.90;;;;;;5011273;28;20042;-63
2023/09/02 09:45:29;;;;;;;26.30;18.50;;;18.60;99.90;;;;;;5011498;28;20128;-62
2023/09/02 09:47:59;;;;;;;26.83;18.50;;;18.60;99.90;;;;;;5012134;28;20034;-63
2023/09/02 09:50:28;;;;;;;23.08;17.38;;;18.60;99.90;;;;;;5011331;28;20046;-62
2023/09/02 09:53:01;;;;;;;23.55;17.65;;;18.60;99.90;;;;;;5010952;28;20034;-63
2023/09/02 09:55:29;;;;;;;30.00;18.58;;;18.60;99.90;;;;;;5008853;28;20080;-63
2023/09/02 09:57:55;;;;;;;26.25;17.17;;;18.60;99.90;;;;;;5010567;28;20041;-63
2023/09/02 10:00:22;;;;;;;24.55;17.73;;;18.70;99.90;;;;;;5009017;28;20057;-63
2023/09/02 10:02:55;;;;;;;25.77;17.00;;;18.70;99.90;;;;;;5012350;28;20046;-63
2023/09/02 10:05:31;;;;;;;26.45;18.95;;;18.80;99.90;;;;;;5010249;28;20057;-63
2023/09/02 10:07:58;;;;;;;25.02;16.95;;;18.80;99.90;;;;;;5011037;28;20030;-63
2023/09/02 10:10:37;;;;;;;27.40;18.60;;;18.90;99.90;;;;;;5010669;28;20052;-63
2023/09/02 10:13:04;;;;;;;26.67;18.38;;;19.00;99.90;;;;;;5005967;28;20052;-64
2023/09/02 10:15:30;;;;;;;22.77;17.67;;;19.30;99.90;;;;;;5008923;28;20042;-63
2023/09/02 10:18:01;;;;;;;26.80;17.90;;;19.40;99.90;;;;;;5004010;28;20129;-63
2023/09/02 10:20:29;;;;;;;29.35;18.08;;;19.50;99.90;;;;;;5011993;28;20034;-63
2023/09/02 10:23:05;;;;;;;22.80;17.40;;;19.60;99.90;;;;;;5007403;28;20053;-64
2023/09/02 10:25:45;;;;;;;22.60;17.77;;;19.60;99.90;;;;;;5012052;28;20076;-62
2023/09/02 10:28:15;;;;;;;25.52;17.55;;;19.60;99.90;;;;;;5010621;28;20474;-63
2023/09/02 10:30:47;;;;;;;23.05;17.13;;;19.60;99.90;;;;;;5012040;28;20042;-63
2023/09/02 10:33:35;;;;;;;24.85;18.15;;;19.50;99.90;;;;;;5012061;28;20042;-64
2023/09/02 10:36:05;;;;;;;23.75;17.13;;;19.50;99.90;;;;;;5011849;28;20061;-64
2023/09/02 10:38:37;;;;;;;23.67;16.55;;;19.60;99.90;;;;;;5011632;28;20431;-63
2023/09/02 10:41:14;;;;;;;19.35;14.73;;;19.80;99.90;;;;;;5010216;28;20092;-64
2023/09/02 10:43:41;;;;;;;18.73;13.93;;;19.90;99.90;;;;;;5010411;28;20077;-64
2023/09/02 10:46:10;;;;;;;16.35;12.88;;;20.10;99.90;;;;;;5010401;28;20093;-63
2023/09/02 10:48:38;;;;;;;17.52;12.98;;;20.40;99.90;;;;;;5011223;28;20038;-64
2023/09/02 10:51:05;;;;;;;18.00;13.98;;;20.60;99.90;;;;;;5009946;28;20092;-65
2023/09/02 10:53:55;;;;;;;21.40;15.10;;;20.60;99.90;;;;;;5005023;28;20085;-64
2023/09/02 10:56:38;;;;;;;23.40;15.10;;;20.50;99.90;;;;;;5010341;28;20052;-63
2023/09/02 10:59:06;;;;;;;19.48;15.50;;;20.40;99.90;;;;;;5003189;28;20404;-64
2023/09/02 11:01:46;;;;;;;21.30;16.15;;;20.30;99.90;;;;;;5010942;28;20128;-65
2023/09/02 11:04:12;;;;;;;22.30;16.48;;;20.40;99.90;;;;;;5010167;28;20046;-65
2023/09/02 11:06:57;;;;;;;;;;;20.50;99.90;;;;;;5007234;28;20045;-64
2023/09/02 11:09:41;;;;;;;;;;;20.70;99.90;;;;;;5010210;28;19972;-64
2023/09/02 11:12:08;;;;;;;20.17;13.50;;;21.00;99.90;;;;;;5011059;28;20291;-65
2023/09/02 11:14:34;;;;;;;;;;;21.30;99.90;;;;;;5003253;28;20051;-64
2023/09/02 11:17:18;;;;;;;;;;;21.60;99.90;;;;;;5010982;28;19921;-64
2023/09/02 11:19:53;;;;;;;;;;;21.80;99.90;;;;;;5008543;28;19955;-65
2023/09/02 11:22:59;;;;;;;18.50;13.35;;;21.90;99.90;;;;;;5007637;28;19963;-65
2023/09/02 11:25:27;;;;;;;16.80;13.23;;;22.00;99.90;;;;;;5007207;28;20060;-65
2023/09/02 11:27:55;;;;;;;16.67;12.65;;;22.10;99.90;;;;;;5006451;28;20462;-65
2023/09/02 11:30:21;;;;;;;18.60;12.85;;;22.20;99.90;;;;;;5009608;28;20084;-65
2023/09/02 11:32:48;;;;;;;14.60;11.45;;;22.40;99.90;;;;;;5003181;28;20046;-65
2023/09/02 11:35:21;;;;;;;15.35;10.90;;;22.60;99.90;;;;;;5010045;28;20057;-64
2023/09/02 11:37:47;;;;;;;14.43;10.85;;;22.80;99.90;;;;;;5009951;28;20042;-65
2023/09/02 11:40:18;;;;;;;18.38;11.85;;;23.00;99.90;;;;;;5011046;28;20045;-65
2023/09/02 11:43:00;;;;;;;15.98;10.80;;;23.20;99.90;;;;;;5010310;28;20046;-65
2023/09/02 11:45:31;;;;;;;13.70;10.23;;;23.30;99.90;;;;;;5008862;28;20041;-65
2023/09/02 11:47:57;;;;;;;16.60;10.30;;;23.30;99.90;;;;;;5003208;28;20109;-65
2023/09/02 11:50:24;;;;;;;13.10;9.85;;;23.40;99.90;;;;;;5006913;28;20436;-65
2023/09/02 11:52:53;;;;;;;14.43;10.15;;;23.60;99.90;;;;;;5006154;28;20088;-65
2023/09/02 11:55:19;;;;;;;14.60;9.63;;;23.60;99.90;;;;;;5009398;28;20077;-65
2023/09/02 11:57:46;;;;;;;14.85;9.93;;;23.60;99.90;;;;;;5009006;28;20069;-65
2023/09/02 12:00:16;;;;;;;15.13;9.52;;;23.40;99.90;;;;;;5005732;28;20117;-65
2023/09/02 12:02:42;;;;;;;14.52;9.55;;;23.20;99.90;;;;;;5010403;28;20385;-65
2023/09/02 12:05:08;;;;;;;13.32;9.38;;;23.00;99.90;;;;;;5008121;28;20121;-65
2023/09/02 12:07:38;;;;;;;13.68;9.45;;;22.90;99.90;;;;;;5007192;28;20057;-65
2023/09/02 12:10:09;;;;;;;12.40;8.70;;;22.80;99.90;;;;;;5009747;28;20042;-65
2023/09/02 12:12:40;;;;;;;11.38;8.13;;;23.00;99.90;;;;;;5010293;28;20053;-65
2023/09/02 12:15:06;;;;;;;13.50;7.82;;;23.10;99.90;;;;;;5009132;28;20045;-65
2023/09/02 12:17:32;;;;;;;10.40;7.63;;;23.30;99.90;;;;;;5005409;28;20113;-65
2023/09/02 12:20:01;;;;;;;11.88;7.72;;;23.40;99.90;;;;;;5010098;28;20128;-65
2023/09/02 12:22:27;;;;;;;13.65;7.78;;;23.50;99.90;;;;;;5005009;28;20370;-65
2023/09/02 12:24:53;;;;;;;11.85;7.97;;;23.60;99.90;;;;;;5008374;28;20509;-65
2023/09/02 12:27:18;;;;;;;13.07;8.63;;;23.70;99.90;;;;;;5009568;28;20148;-65
2023/09/02 12:29:57;;;;;;;12.57;8.50;;;23.70;99.90;;;;;;5009996;28;20042;-65